Terminal Aerodrome Forecast
Issued by NWS Wichita, KS

Home | Current Version | Previous Version | Graphics & Text | Print | Product List | Glossary On
Versions: 1 2 3 4 5 6 7 8 9 10 11 12 13 14 15 16 17 18
000
FTUS43 KICT 251100
TAFICT
TAF
KICT 251137Z 2512/2612 00000KT 1/4SM FG SCT003
     FM251400 VRB03KT 3SM BR SKC
     FM251700 09005KT P6SM SKC
     FM252000 13007KT P6SM SKC=

USA.gov is the U.S. government's official web portal to all federal, state and local government web resources and services.